createdAt,value
2022-08-03T00:01:54.167Z,7.20
2022-08-03T00:04:21.145Z,6.53
2022-08-03T00:07:01.139Z,5.18
2022-08-03T00:09:28.183Z,7.43
2022-08-03T00:12:02.940Z,10.90
2022-08-03T00:14:29.814Z,5.53
2022-08-03T00:16:56.768Z,9.05
2022-08-03T00:19:23.721Z,6.45
2022-08-03T00:21:51.088Z,4.10
2022-08-03T00:24:18.066Z,4.93
2022-08-03T00:26:44.940Z,7.22
2022-08-03T00:29:11.888Z,5.18
2022-08-03T00:31:51.470Z,6.93
2022-08-03T00:34:27.368Z,7.30
2022-08-03T00:37:03.672Z,7.05
2022-08-03T00:39:30.523Z,4.63
2022-08-03T00:41:57.385Z,7.55
2022-08-03T00:44:24.272Z,6.78
2022-08-03T00:46:51.162Z,6.38
2022-08-03T00:49:18.112Z,6.53
2022-08-03T00:51:45.065Z,8.70
2022-08-03T00:54:12.284Z,4.45
2022-08-03T00:56:39.924Z,10.93
2022-08-03T00:59:27.009Z,5.47
2022-08-03T01:01:54.292Z,8.52
2022-08-03T01:04:21.160Z,7.70
2022-08-03T01:06:59.574Z,8.27
2022-08-03T01:09:33.426Z,5.50
2022-08-03T01:12:08.406Z,10.13
2022-08-03T01:14:38.121Z,7.32
2022-08-03T01:17:13.666Z,7.38
2022-08-03T01:20:00.714Z,6.40
2022-08-03T01:23:05.693Z,13.75
2022-08-03T01:26:14.412Z,8.93
2022-08-03T01:29:18.872Z,7.60
2022-08-03T01:33:00.127Z,9.90
2022-08-03T01:34:52.332Z,4.50
2022-08-03T01:37:38.871Z,9.75
2022-08-03T01:40:07.670Z,10.27
2022-08-03T01:42:36.897Z,16.70
2022-08-03T01:45:04.664Z,10.50
2022-08-03T01:47:32.894Z,13.48
2022-08-03T01:50:01.413Z,8.63
2022-08-03T01:52:30.844Z,9.25
2022-08-03T01:54:59.162Z,9.63
2022-08-03T01:57:29.268Z,16.40
2022-08-03T01:59:58.873Z,11.88
2022-08-03T02:02:32.832Z,4.57
2022-08-03T02:05:03.374Z,10.40
2022-08-03T02:07:33.029Z,8.20
2022-08-03T02:10:02.979Z,8.73
2022-08-03T02:12:32.572Z,11.15
2022-08-03T02:15:01.054Z,5.45
2022-08-03T02:17:39.819Z,9.73
2022-08-03T02:20:09.362Z,6.72
2022-08-03T02:22:39.493Z,8.93
2022-08-03T02:25:11.090Z,8.70
2022-08-03T02:27:43.807Z,11.93
2022-08-03T02:30:12.969Z,8.70
2022-08-03T02:32:42.566Z,13.68
2022-08-03T02:35:13.361Z,10.95
2022-08-03T02:37:49.726Z,8.25
2022-08-03T02:40:20.363Z,10.20
2022-08-03T02:42:49.944Z,22.40
2022-08-03T02:45:18.392Z,28.52
2022-08-03T02:47:53.370Z,20.90
2022-08-03T02:50:23.602Z,15.70
2022-08-03T02:52:53.237Z,19.08
2022-08-03T02:55:21.850Z,12.85
2022-08-03T02:57:50.245Z,9.05
2022-08-03T03:00:27.652Z,8.95
2022-08-03T03:03:00.769Z,7.25
2022-08-03T03:05:52.491Z,8.45
2022-08-03T03:08:20.947Z,6.88
2022-08-03T03:10:55.722Z,6.00
2022-08-03T03:13:23.475Z,10.50
2022-08-03T03:15:52.167Z,7.53
2022-08-03T03:18:22.709Z,5.93
2022-08-03T03:20:52.630Z,6.47
2022-08-03T03:23:22.104Z,10.68
2022-08-03T03:25:49.749Z,6.60
2022-08-03T03:28:16.897Z,6.63
2022-08-03T03:30:44.411Z,6.07
2022-08-03T03:33:12.395Z,12.80
2022-08-03T03:35:41.501Z,12.45
2022-08-03T03:38:09.551Z,5.80
2022-08-03T03:40:38.084Z,12.52
2022-08-03T03:43:09.920Z,9.25
2022-08-03T03:48:07.669Z,12.93
2022-08-03T03:50:36.140Z,8.88
2022-08-03T03:53:04.066Z,7.15
2022-08-03T03:55:31.248Z,7.38
2022-08-03T03:57:58.257Z,12.23
2022-08-03T04:00:25.400Z,9.15
2022-08-03T04:02:52.444Z,8.25
2022-08-03T04:05:37.723Z,4.80
2022-08-03T04:08:27.952Z,7.78
2022-08-03T04:11:29.092Z,14.40
2022-08-03T04:14:17.316Z,14.32
2022-08-03T04:16:49.280Z,17.00
2022-08-03T04:21:52.911Z,9.70
2022-08-03T04:24:22.287Z,9.00
2022-08-03T04:26:54.517Z,6.35
2022-08-03T04:29:22.478Z,10.23
2022-08-03T04:31:50.798Z,11.32
2022-08-03T04:34:17.925Z,6.90
2022-08-03T04:36:49.456Z,10.73
2022-08-03T04:39:27.439Z,7.25
2022-08-03T04:42:06.717Z,10.77
2022-08-03T04:44:39.110Z,13.15
2022-08-03T04:47:06.726Z,10.50
2022-08-03T04:49:35.708Z,10.63
2022-08-03T04:52:03.031Z,10.35
2022-08-03T04:54:30.105Z,13.20
2022-08-03T04:56:57.120Z,8.73
2022-08-03T04:59:24.140Z,12.77
2022-08-03T05:01:51.035Z,13.82
2022-08-03T05:04:18.376Z,18.40
2022-08-03T05:06:48.080Z,9.85
2022-08-03T05:09:25.955Z,7.10
2022-08-03T05:12:08.555Z,12.93
2022-08-03T05:14:38.237Z,9.85
2022-08-03T05:17:06.257Z,12.55
2022-08-03T05:19:33.645Z,6.93
2022-08-03T05:22:00.744Z,15.80
2022-08-03T05:24:27.772Z,7.20
2022-08-03T05:26:54.725Z,11.57
2022-08-03T05:29:21.765Z,8.88
2022-08-03T05:31:48.743Z,15.98
2022-08-03T05:34:15.751Z,16.95
2022-08-03T05:36:42.656Z,9.52
2022-08-03T05:39:09.559Z,12.45
2022-08-03T05:41:37.568Z,10.65
2022-08-03T05:44:04.951Z,15.30
2022-08-03T05:46:32.138Z,13.40
2022-08-03T05:48:59.139Z,12.80
2022-08-03T05:51:26.233Z,10.73
2022-08-03T05:53:53.186Z,14.57
2022-08-03T05:56:24.505Z,9.85
2022-08-03T05:58:52.587Z,10.27
2022-08-03T06:01:21.916Z,9.98
2022-08-03T06:03:49.864Z,9.00
2022-08-03T06:06:17.353Z,11.13
2022-08-03T06:08:45.639Z,6.60
2022-08-03T06:11:13.227Z,10.35
2022-08-03T06:13:41.346Z,10.10
2022-08-03T06:16:08.563Z,8.45
2022-08-03T06:18:35.869Z,7.88
2022-08-03T06:21:15.493Z,10.23
2022-08-03T06:23:53.355Z,11.18
2022-08-03T06:26:22.561Z,11.43
2022-08-03T06:28:53.265Z,7.18
2022-08-03T06:31:24.045Z,13.27
2022-08-03T06:34:34.393Z,11.07
2022-08-03T06:36:38.444Z,6.38
2022-08-03T06:39:05.710Z,10.18
2022-08-03T06:41:37.296Z,9.27
2022-08-03T06:44:05.513Z,5.63
2022-08-03T06:46:32.421Z,11.02
2022-08-03T06:48:59.333Z,7.65
2022-08-03T06:52:05.487Z,14.10
2022-08-03T06:54:13.193Z,7.93
2022-08-03T06:56:40.066Z,6.35
2022-08-03T06:59:07.203Z,8.85
2022-08-03T07:01:34.322Z,3.80
2022-08-03T07:04:01.317Z,6.35
2022-08-03T07:06:28.269Z,6.00
2022-08-03T07:08:59.236Z,7.90
2022-08-03T07:11:26.722Z,9.65
2022-08-03T07:13:53.617Z,10.77
2022-08-03T07:16:20.717Z,8.88
2022-08-03T07:18:47.899Z,11.43
2022-08-03T07:21:16.751Z,6.22
2022-08-03T07:23:43.705Z,7.00
2022-08-03T07:26:10.628Z,9.52
2022-08-03T07:28:37.793Z,7.53
2022-08-03T07:31:04.744Z,6.80
2022-08-03T07:33:31.628Z,5.18
2022-08-03T07:35:58.573Z,7.18
2022-08-03T07:38:25.597Z,7.28
2022-08-03T07:40:53.473Z,3.35
2022-08-03T07:43:21.547Z,4.68
2022-08-03T07:45:48.490Z,7.35
2022-08-03T07:48:15.399Z,6.95
2022-08-03T07:50:42.324Z,6.95
2022-08-03T07:53:09.265Z,10.05
2022-08-03T08:19:16.736Z,11.27
2022-08-03T08:21:53.593Z,11.48
2022-08-03T08:53:29.600Z,13.55
2022-08-03T08:56:02.232Z,15.45
2022-08-03T08:58:35.000Z,7.28
2022-08-03T09:01:02.056Z,8.43
2022-08-03T09:03:30.621Z,8.15
2022-08-03T09:06:00.571Z,11.57
2022-08-03T09:08:28.500Z,10.38
2022-08-03T09:10:55.578Z,9.30
2022-08-03T09:13:22.680Z,9.73
2022-08-03T09:16:08.586Z,11.23
2022-08-03T09:18:35.449Z,9.68
2022-08-03T09:21:34.847Z,12.38
2022-08-03T09:24:05.737Z,15.25
2022-08-03T09:26:36.178Z,8.30
2022-08-03T09:29:15.429Z,6.85
2022-08-03T09:31:47.002Z,11.77
2022-08-03T09:36:46.967Z,8.77
2022-08-03T09:39:40.313Z,9.32
2022-08-03T09:42:11.581Z,6.13
2022-08-03T09:44:43.344Z,6.95
2022-08-03T09:47:11.841Z,6.25
2022-08-03T09:49:41.636Z,4.28
2022-08-03T09:52:38.254Z,9.25
2022-08-03T09:56:05.127Z,5.97
2022-08-03T09:58:09.543Z,6.75
2022-08-03T10:00:58.202Z,14.38
2022-08-03T10:03:28.360Z,8.07
2022-08-03T10:05:59.764Z,8.95
2022-08-03T10:08:27.415Z,6.65
2022-08-03T10:10:54.778Z,7.75
2022-08-03T10:13:23.151Z,5.38
2022-08-03T10:16:22.327Z,4.25
2022-08-03T10:18:37.943Z,6.95
2022-08-03T10:21:10.491Z,6.95
2022-08-03T10:23:38.891Z,16.27
2022-08-03T10:26:07.989Z,10.02
2022-08-03T10:28:47.213Z,5.43
2022-08-03T10:31:15.889Z,4.43
2022-08-03T10:33:51.668Z,7.40
2022-08-03T10:36:24.525Z,5.10
2022-08-03T10:38:53.248Z,8.63
2022-08-03T10:41:32.518Z,2.50
2022-08-03T10:44:05.110Z,6.88
2022-08-03T10:46:35.210Z,6.00
2022-08-03T10:49:03.259Z,3.60
2022-08-03T10:51:33.482Z,12.75
2022-08-03T10:54:01.757Z,5.15
2022-08-03T10:56:53.471Z,5.70
2022-08-03T10:59:48.524Z,4.82
2022-08-03T11:02:15.947Z,3.67
2022-08-03T11:04:44.821Z,13.85
2022-08-03T11:07:23.998Z,3.65
2022-08-03T11:09:56.183Z,3.00
2022-08-03T11:12:30.713Z,6.25
2022-08-03T11:15:09.193Z,10.57
2022-08-03T11:17:46.595Z,5.93
2022-08-03T11:20:46.475Z,3.97
2022-08-03T11:23:14.464Z,3.20
2022-08-03T11:26:13.820Z,12.63
2022-08-03T11:28:43.362Z,5.70
2022-08-03T11:31:48.065Z,2.35
2022-08-03T11:34:12.169Z,4.43
2022-08-03T11:37:16.856Z,9.68
2022-08-03T11:39:46.521Z,4.85
2022-08-03T11:42:23.361Z,8.27
2022-08-03T11:44:51.751Z,5.40
2022-08-03T11:47:20.441Z,7.32
2022-08-03T11:49:48.649Z,11.68
2022-08-03T11:52:17.485Z,5.55
2022-08-03T11:54:45.496Z,3.42
2022-08-03T11:57:13.197Z,5.93
2022-08-03T11:59:40.283Z,2.05
2022-08-03T12:02:07.748Z,4.25
2022-08-03T12:04:54.538Z,6.35
2022-08-03T12:08:02.746Z,2.40
2022-08-03T12:10:13.423Z,7.75
2022-08-03T12:12:46.367Z,9.90
2022-08-03T12:15:13.873Z,10.57
2022-08-03T12:17:41.670Z,4.85
2022-08-03T12:20:20.555Z,7.30
2022-08-03T12:23:06.917Z,7.22
2022-08-03T12:25:39.123Z,2.95
2022-08-03T12:28:36.090Z,1.27
2022-08-03T12:31:06.482Z,5.18
2022-08-03T12:33:55.963Z,4.47
2022-08-03T12:36:23.387Z,11.77
2022-08-03T12:39:07.588Z,5.38
2022-08-03T12:41:36.404Z,3.42
2022-08-03T12:44:08.213Z,7.43
2022-08-03T12:46:36.869Z,8.57
2022-08-03T12:49:19.245Z,5.57
2022-08-03T12:51:46.129Z,4.88
2022-08-03T12:54:24.662Z,5.60
2022-08-03T12:56:58.139Z,6.90
2022-08-03T12:59:34.922Z,9.80
2022-08-03T13:02:04.543Z,4.78
2022-08-03T13:04:36.972Z,3.03
2022-08-03T13:07:12.759Z,3.22
2022-08-03T13:09:54.958Z,5.88
2022-08-03T13:12:23.041Z,3.47
2022-08-03T13:14:52.704Z,3.63
2022-08-03T13:17:20.650Z,2.75
2022-08-03T13:19:48.924Z,5.55
2022-08-03T13:22:20.931Z,8.27
2022-08-03T13:24:51.512Z,7.95
2022-08-03T13:28:01.630Z,4.75
2022-08-03T13:30:07.641Z,6.95
2022-08-03T13:32:35.211Z,4.85
2022-08-03T13:35:03.029Z,2.72
2022-08-03T13:37:32.334Z,4.20
2022-08-03T13:40:02.433Z,26.70
2022-08-03T13:42:34.112Z,4.70
2022-08-03T13:45:01.986Z,14.57
2022-08-03T13:47:29.276Z,11.05
2022-08-03T13:50:01.807Z,2.63
2022-08-03T13:52:36.615Z,4.63
2022-08-03T13:55:06.315Z,3.65
2022-08-03T13:58:02.243Z,3.25
2022-08-03T14:00:28.696Z,3.00
2022-08-03T14:03:07.927Z,5.05
2022-08-03T14:05:41.106Z,6.22
2022-08-03T14:08:08.563Z,2.90
2022-08-03T14:10:41.465Z,4.45
2022-08-03T14:13:09.002Z,6.22
2022-08-03T14:15:38.487Z,5.10
2022-08-03T14:18:15.300Z,4.05
2022-08-03T14:20:49.101Z,2.17
2022-08-03T14:23:21.617Z,7.57
2022-08-03T14:25:51.961Z,7.20
2022-08-03T14:28:21.331Z,5.60
2022-08-03T14:30:48.703Z,4.53
2022-08-03T14:33:16.274Z,5.28
2022-08-03T14:35:43.446Z,9.27
2022-08-03T14:38:11.831Z,6.00
2022-08-03T14:40:38.877Z,7.07
2022-08-03T14:43:05.912Z,5.60
2022-08-03T14:45:32.916Z,6.68
2022-08-03T14:50:32.846Z,7.57
2022-08-03T14:50:51.498Z,4.03
2022-08-03T14:53:23.226Z,3.60
2022-08-03T14:55:51.904Z,1.80
2022-08-03T14:58:20.904Z,3.15
2022-08-03T15:00:49.936Z,6.85
2022-08-03T15:03:20.261Z,6.07
2022-08-03T15:05:54.069Z,6.20
2022-08-03T15:08:22.304Z,6.28
2022-08-03T15:10:50.475Z,8.10
2022-08-03T15:13:18.905Z,4.57
2022-08-03T15:15:46.563Z,4.82
2022-08-03T15:18:17.690Z,6.10
2022-08-03T15:20:46.266Z,4.70
2022-08-03T15:23:19.691Z,8.27
2022-08-03T15:26:28.679Z,7.03
2022-08-03T15:28:37.437Z,7.22
2022-08-03T15:31:07.342Z,6.20
2022-08-03T15:33:35.145Z,6.30
2022-08-03T15:36:03.847Z,7.40
2022-08-03T15:38:30.796Z,8.00
2022-08-03T15:40:59.190Z,6.00
2022-08-03T15:43:26.214Z,4.20
2022-08-03T15:48:41.126Z,2.55
2022-08-03T15:51:09.047Z,4.45
2022-08-03T15:53:36.285Z,7.28
2022-08-03T15:56:07.994Z,8.80
2022-08-03T15:59:04.579Z,6.63
2022-08-03T16:01:26.789Z,8.90
2022-08-03T16:03:53.968Z,11.45
2022-08-03T16:06:29.525Z,5.40
2022-08-03T16:09:23.949Z,6.57
2022-08-03T16:11:54.896Z,17.20
2022-08-03T16:14:34.756Z,4.93
2022-08-03T16:17:07.531Z,7.50
2022-08-03T16:19:35.629Z,5.72
2022-08-03T16:22:03.261Z,11.85
2022-08-03T16:24:30.512Z,5.32
2022-08-03T16:26:57.819Z,5.78
2022-08-03T16:29:27.535Z,7.40
2022-08-03T16:31:55.393Z,4.47
2022-08-03T16:34:22.366Z,8.23
2022-08-03T16:36:51.546Z,8.68
2022-08-03T16:39:19.102Z,7.85
2022-08-03T16:41:54.226Z,7.30
2022-08-03T16:44:30.260Z,5.25
2022-08-03T16:46:58.147Z,9.88
2022-08-03T16:49:54.161Z,15.25
2022-08-03T16:52:12.926Z,5.43
2022-08-03T16:54:40.063Z,6.97
2022-08-03T16:57:07.702Z,2.28
2022-08-03T16:59:36.545Z,8.77
2022-08-03T17:02:09.924Z,7.32
2022-08-03T17:07:03.058Z,19.40
2022-08-03T17:09:38.376Z,6.57
2022-08-03T17:12:07.552Z,4.18
2022-08-03T17:14:38.613Z,6.28
2022-08-03T17:17:16.165Z,11.43
2022-08-03T17:19:47.502Z,9.77
2022-08-03T17:22:27.091Z,2.47
2022-08-03T17:24:56.083Z,12.32
2022-08-03T17:28:48.702Z,8.93
2022-08-03T17:30:19.098Z,12.25
2022-08-03T17:32:52.724Z,8.65
2022-08-03T17:35:24.748Z,6.80
2022-08-03T17:38:03.666Z,13.95
2022-08-03T17:40:32.114Z,5.97
2022-08-03T17:43:00.817Z,9.10
2022-08-03T17:45:51.974Z,14.82
2022-08-03T17:48:18.545Z,15.23
2022-08-03T17:50:56.002Z,35.90
2022-08-03T17:53:30.673Z,23.83
2022-08-03T17:59:52.198Z,28.20
2022-08-03T18:03:11.268Z,29.75
2022-08-03T18:06:11.500Z,4.95
2022-08-03T18:08:35.547Z,12.40
2022-08-03T18:11:14.909Z,22.35
2022-08-03T18:13:57.695Z,12.80
2022-08-03T18:16:32.524Z,3.05
2022-08-03T18:19:09.487Z,25.05
2022-08-03T18:22:02.960Z,26.70
2022-08-03T18:24:30.228Z,23.20
2022-08-03T18:26:58.692Z,9.90
2022-08-03T18:29:27.396Z,18.15
2022-08-03T18:32:06.820Z,17.85
2022-08-03T18:34:53.150Z,9.95
2022-08-03T18:37:25.469Z,14.05
2022-08-03T18:39:57.991Z,14.93
2022-08-03T18:42:26.769Z,14.38
2022-08-03T18:44:57.140Z,18.15
2022-08-03T18:48:11.514Z,10.85
2022-08-03T18:50:49.788Z,28.48
2022-08-03T18:53:23.104Z,41.03
2022-08-03T18:56:26.966Z,63.67
2022-08-03T18:59:04.994Z,46.30
2022-08-03T19:02:00.640Z,38.28
2022-08-03T19:04:32.594Z,41.95
2022-08-03T19:07:09.471Z,43.03
2022-08-03T19:09:44.087Z,30.88
2022-08-03T19:12:57.378Z,14.88
2022-08-03T19:15:36.813Z,20.92
2022-08-03T19:18:11.036Z,18.42
2022-08-03T19:20:38.449Z,19.40
2022-08-03T19:23:06.944Z,19.85
2022-08-03T19:25:40.423Z,13.85
2022-08-03T19:28:09.304Z,105.20
2022-08-03T19:30:39.722Z,58.20
2022-08-03T19:33:12.974Z,64.40
2022-08-03T19:35:56.925Z,79.78
2022-08-03T19:38:28.359Z,56.10
2022-08-03T19:41:03.163Z,35.25
2022-08-03T19:43:53.040Z,41.13
2022-08-03T19:46:30.645Z,31.52
2022-08-03T19:49:17.003Z,30.48
2022-08-03T19:52:01.771Z,18.27
2022-08-03T19:54:52.818Z,25.70
2022-08-03T19:57:23.718Z,26.58
2022-08-03T19:59:53.422Z,33.92
2022-08-03T20:02:27.087Z,30.58
2022-08-03T20:04:57.416Z,27.08
2022-08-03T20:07:26.570Z,19.30
2022-08-03T20:09:56.533Z,27.17
2022-08-03T20:12:27.666Z,35.53
2022-08-03T20:15:00.145Z,24.90
2022-08-03T20:17:55.115Z,34.72
2022-08-03T20:20:21.556Z,32.47
2022-08-03T20:22:57.503Z,16.83
2022-08-03T20:25:38.800Z,32.10
2022-08-03T20:28:14.147Z,35.88
2022-08-03T20:30:47.490Z,66.70
2022-08-03T20:33:18.366Z,45.10
2022-08-03T20:38:46.957Z,27.25
2022-08-03T20:41:15.486Z,55.83
2022-08-03T20:43:42.430Z,41.13
2022-08-03T20:46:31.032Z,21.70
2022-08-03T20:48:58.771Z,21.58
2022-08-03T20:51:50.158Z,28.38
2022-08-03T20:54:22.884Z,28.92
2022-08-03T20:56:58.417Z,26.35
2022-08-03T20:59:38.574Z,28.52
2022-08-03T21:02:29.588Z,32.60
2022-08-03T21:05:03.443Z,22.90
2022-08-03T21:08:07.139Z,26.25
2022-08-03T21:10:38.159Z,22.50
2022-08-03T21:12:55.924Z,16.83
2022-08-03T21:13:07.169Z,38.08
2022-08-03T21:13:30.033Z,42.83
2022-08-03T21:16:11.962Z,56.15
2022-08-03T21:18:50.129Z,50.63
2022-08-03T21:21:19.740Z,28.40
2022-08-03T21:23:53.351Z,16.15
2022-08-03T21:26:23.495Z,14.82
2022-08-03T21:28:53.154Z,13.25
2022-08-03T21:31:25.438Z,16.30
2022-08-03T21:33:56.781Z,22.73
2022-08-03T21:36:26.301Z,23.15
2022-08-03T21:38:56.674Z,16.20
2022-08-03T21:41:26.233Z,30.60
2022-08-03T21:43:53.301Z,24.25
2022-08-03T21:46:21.126Z,22.52
2022-08-03T21:48:56.095Z,27.63
2022-08-03T21:51:25.338Z,45.78
2022-08-03T21:54:02.526Z,45.00
2022-08-03T21:56:51.953Z,42.95
2022-08-03T21:59:20.467Z,23.10
2022-08-03T22:01:51.301Z,15.35
2022-08-03T22:04:55.773Z,67.63
2022-08-03T22:07:09.073Z,53.08
2022-08-03T22:09:38.361Z,37.78
2022-08-03T22:12:06.567Z,54.55
2022-08-03T22:14:34.275Z,20.55
2022-08-03T22:17:06.300Z,40.95
2022-08-03T22:19:37.307Z,28.05
2022-08-03T22:22:08.044Z,41.15
2022-08-03T22:24:36.953Z,26.35
2022-08-03T22:27:23.219Z,16.50
2022-08-03T22:29:51.579Z,17.65
2022-08-03T22:32:18.657Z,11.55
2022-08-03T22:34:48.781Z,19.08
2022-08-03T22:37:20.510Z,16.77
2022-08-03T22:39:50.279Z,17.50
2022-08-03T22:42:19.223Z,33.15
2022-08-03T22:44:49.206Z,41.03
2022-08-03T22:47:22.434Z,124.60
2022-08-03T22:50:31.467Z,47.75
2022-08-03T22:52:41.442Z,41.47
2022-08-03T22:55:11.468Z,32.45
2022-08-03T22:57:46.258Z,15.40
2022-08-03T23:00:23.958Z,31.33
2022-08-03T23:02:53.987Z,29.45
2022-08-03T23:06:01.086Z,27.45
2022-08-03T23:08:15.224Z,39.88
2022-08-03T23:10:47.170Z,29.30
2022-08-03T23:13:20.803Z,30.55
2022-08-03T23:15:59.686Z,34.17
2022-08-03T23:18:37.072Z,48.15
2022-08-03T23:21:11.611Z,60.42
2022-08-03T23:23:45.069Z,72.05
2022-08-03T23:26:16.429Z,65.72
2022-08-03T23:28:46.717Z,46.00
2022-08-03T23:31:15.889Z,37.97
2022-08-03T23:33:45.269Z,50.75
2022-08-03T23:36:30.369Z,28.25
2022-08-03T23:39:02.401Z,16.65
2022-08-03T23:41:30.892Z,52.10
2022-08-03T23:44:01.098Z,34.28
2022-08-03T23:46:30.500Z,49.33
2022-08-03T23:48:58.892Z,62.70
2022-08-03T23:51:46.374Z,60.92
2022-08-03T23:54:35.268Z,33.70
2022-08-03T23:57:44.379Z,34.70
